Time;durP1;ratioP1;P1;durP2;ratioP2;P2;SDS_P1;SDS_P2;PMS_P1;PMS_P2;Temp;Humidity;BMP_temperature;BMP_pressure;BME280_temperature;BME280_humidity;BME280_pressure;Samples;Min_cycle;Max_cycle;Signal;HPM_P1;HPM_P2
2021/12/28 00:01:49;;;;;;;29.50;10.45;;;;;;;6.90;100.00;98487.69;5049765;28;20032;-59
2021/12/28 00:04:14;;;;;;;22.20;8.73;;;;;;;6.94;100.00;98480.47;5049075;28;20189;-59
2021/12/28 00:06:40;;;;;;;36.58;10.48;;;;;;;6.96;100.00;98476.81;5049813;28;20912;-59
2021/12/28 00:09:05;;;;;;;26.15;9.43;;;;;;;6.98;100.00;98485.41;5050331;28;20024;-59
2021/12/28 00:11:30;;;;;;;27.13;9.02;;;;;;;6.99;100.00;98479.25;5049181;28;20039;-58
2021/12/28 00:14:01;;;;;;;30.77;9.52;;;;;;;7.05;100.00;98478.84;5050048;28;20027;-58
2021/12/28 00:18:55;;;;;;;42.88;10.90;;;;;;;7.05;100.00;98459.72;5048305;28;20086;-59
2021/12/28 00:21:20;;;;;;;20.35;8.85;;;;;;;7.05;100.00;98460.56;5049545;28;20866;-58
2021/12/28 00:23:46;;;;;;;32.78;9.70;;;;;;;7.02;100.00;98460.78;5048585;28;20874;-58
2021/12/28 00:26:13;;;;;;;24.35;10.25;;;;;;;7.08;100.00;98454.28;5048058;28;20354;-58
2021/12/28 00:28:39;;;;;;;30.17;9.48;;;;;;;7.09;100.00;98456.81;5049223;28;20028;-58
2021/12/28 00:31:04;;;;;;;48.05;9.82;;;;;;;7.12;100.00;98451.38;5048170;28;20024;-57
2021/12/28 00:33:30;;;;;;;27.42;9.02;;;;;;;7.16;100.00;98452.81;5047926;28;20821;-57
2021/12/28 00:35:55;;;;;;;29.23;11.15;;;;;;;7.20;100.00;98443.00;5049070;28;20036;-57
2021/12/28 00:38:23;;;;;;;27.65;8.98;;;;;;;7.23;100.00;98436.75;5048086;28;20735;-58
2021/12/28 00:40:51;;;;;;;36.92;11.02;;;;;;;7.29;100.00;98431.09;5047486;28;20024;-57
2021/12/28 00:43:16;;;;;;;32.60;10.43;;;;;;;7.37;100.00;98437.47;5049245;28;20032;-57
2021/12/28 00:45:42;;;;;;;38.67;11.45;;;;;;;7.39;100.00;98438.22;5049363;28;20035;-57
2021/12/28 00:48:07;;;;;;;32.65;9.98;;;;;;;7.40;100.00;98439.06;5049326;28;20127;-58
2021/12/28 00:50:33;;;;;;;31.73;10.90;;;;;;;7.50;100.00;98437.47;5048774;28;20044;-57
2021/12/28 00:52:58;;;;;;;35.00;10.40;;;;;;;7.50;100.00;98432.25;5048794;28;20123;-57
2021/12/28 00:55:24;;;;;;;25.02;8.80;;;;;;;7.48;100.00;98432.34;5047226;28;20453;-57
2021/12/28 00:57:50;;;;;;;29.15;9.40;;;;;;;7.48;100.00;98432.34;5049103;28;20028;-58
2021/12/28 01:00:19;;;;;;;47.42;12.25;;;;;;;7.52;100.00;98427.75;5048855;28;20028;-57
2021/12/28 01:02:45;;;;;;;32.03;11.98;;;;;;;7.56;100.00;98426.59;5048620;28;20024;-57
2021/12/28 01:05:11;;;;;;;38.72;9.90;;;;;;;7.60;100.00;98428.06;5048468;28;20035;-58
2021/12/28 01:07:37;;;;;;;43.58;11.23;;;;;;;7.63;100.00;98423.47;5048036;28;20032;-58
2021/12/28 01:10:05;;;;;;;38.90;10.13;;;;;;;7.67;100.00;98426.69;5048616;28;20848;-58
2021/12/28 01:12:31;;;;;;;32.30;11.45;;;;;;;7.69;100.00;98414.34;5047053;28;20590;-58
2021/12/28 01:14:56;;;;;;;26.80;11.70;;;;;;;7.71;100.00;98415.06;5048471;28;20028;-58
2021/12/28 01:17:22;;;;;;;31.80;10.50;;;;;;;7.70;100.00;98405.56;5048554;28;20078;-58
2021/12/28 01:19:47;;;;;;;34.10;11.55;;;;;;;7.69;100.00;98401.28;5048225;28;20040;-58
2021/12/28 01:22:13;;;;;;;30.00;10.45;;;;;;;7.80;100.00;98411.81;5047864;28;20139;-58
2021/12/28 01:24:38;;;;;;;32.33;10.65;;;;;;;7.83;100.00;98410.75;5048094;28;20028;-58
2021/12/28 01:27:04;;;;;;;31.95;10.05;;;;;;;7.75;100.00;98397.38;5046726;28;20032;-58
2021/12/28 01:29:29;;;;;;;32.70;10.23;;;;;;;7.87;100.00;98417.44;5046592;28;20159;-58
2021/12/28 01:31:55;;;;;;;39.70;10.90;;;;;;;7.85;100.00;98417.53;5048372;28;20059;-58
2021/12/28 01:34:20;;;;;;;39.17;12.10;;;;;;;7.86;100.00;98416.59;5048557;28;20996;-57
2021/12/28 01:36:46;;;;;;;33.13;10.65;;;;;;;7.56;100.00;98359.50;5048104;28;20550;-58
2021/12/28 01:39:12;;;;;;;48.45;9.93;;;;;;;7.84;100.00;98408.00;5048053;28;20055;-58
2021/12/28 01:41:38;;;;;;;30.58;8.52;;;;;;;7.86;100.00;98414.00;5046531;28;20032;-58
2021/12/28 01:44:06;;;;;;;22.13;10.15;;;;;;;7.86;100.00;98406.16;5048590;28;20032;-58
2021/12/28 01:46:33;;;;;;;33.05;10.20;;;;;;;7.86;100.00;98408.75;5047493;28;20070;-57
2021/12/28 01:48:59;;;;;;;23.73;10.07;;;;;;;7.68;100.00;98381.28;5048100;28;20027;-58
2021/12/28 01:51:26;;;;;;;28.48;10.00;;;;;;;7.82;100.00;98399.47;5047882;28;20981;-58
2021/12/28 01:53:55;;;;;;;28.58;9.32;;;;;;;7.83;100.00;98401.13;5046377;28;20024;-58
2021/12/28 01:56:27;;;;;;;25.45;9.13;;;;;;;7.84;100.00;98408.00;5046595;28;20028;-58
2021/12/28 01:58:54;;;;;;;32.38;10.40;;;;;;;7.81;100.00;98392.53;5047836;28;20856;-58
2021/12/28 02:01:19;;;;;;;38.38;9.13;;;;;;;7.84;100.00;98400.16;5048302;28;20914;-58
2021/12/28 02:03:46;;;;;;;32.33;8.98;;;;;;;7.89;100.00;98405.91;5061837;28;20031;-58
2021/12/28 02:06:12;;;;;;;27.33;8.48;;;;;;;7.93;100.00;98399.53;5027907;28;20049;-58
2021/12/28 02:08:38;;;;;;;25.45;9.32;;;;;;;7.95;100.00;98399.41;5045967;28;20032;-57
2021/12/28 02:11:04;;;;;;;25.00;8.20;;;;;;;7.99;100.00;98401.72;5048469;28;20043;-58
2021/12/28 02:13:30;;;;;;;31.77;8.18;;;;;;;8.03;100.00;98394.47;5048012;28;20135;-58
2021/12/28 02:15:56;;;;;;;30.58;9.15;;;;;;;8.02;100.00;98396.25;5047699;28;20943;-58
2021/12/28 02:18:23;;;;;;;28.83;8.07;;;;;;;8.03;100.00;98392.69;5046722;28;20023;-58
2021/12/28 02:20:50;;;;;;;25.08;8.38;;;;;;;8.05;100.00;98393.41;5047270;28;20028;-58
2021/12/28 02:23:15;;;;;;;22.05;7.60;;;;;;;8.13;100.00;98383.25;5047496;28;20904;-58
2021/12/28 02:25:41;;;;;;;25.25;7.40;;;;;;;8.21;100.00;98383.50;5046109;28;20061;-58
2021/12/28 02:28:08;;;;;;;22.40;8.32;;;;;;;8.20;100.00;98379.25;5046068;28;20530;-58
2021/12/28 02:30:35;;;;;;;23.50;8.15;;;;;;;8.30;100.00;98383.81;5047661;28;20035;-58
2021/12/28 02:33:00;;;;;;;29.17;8.05;;;;;;;8.29;100.00;98393.44;5047811;28;20028;-58
2021/12/28 02:35:26;;;;;;;26.52;8.23;;;;;;;8.25;100.00;98378.06;5047304;28;20039;-58
2021/12/28 02:37:53;;;;;;;18.65;6.93;;;;;;;8.31;100.00;98388.13;5046882;28;20221;-58
2021/12/28 02:40:21;;;;;;;24.05;7.22;;;;;;;8.34;100.00;98383.50;5045772;28;20138;-58
2021/12/28 02:42:47;;;;;;;27.35;7.13;;;;;;;8.33;100.00;98379.19;5045865;28;20879;-58
2021/12/28 02:45:21;;;;;;;16.73;5.97;;;;;;;8.31;100.00;98378.50;5047373;28;20131;-58
2021/12/28 02:47:47;;;;;;;23.88;6.88;;;;;;;8.23;100.00;98376.41;5047573;28;21004;-58
2021/12/28 02:50:19;;;;;;;17.13;6.13;;;;;;;8.19;100.00;98364.47;5047231;28;20032;-58
2021/12/28 02:52:44;;;;;;;13.50;5.28;;;;;;;7.97;100.00;98340.84;5047300;28;20060;-58
2021/12/28 02:55:12;;;;;;;20.23;6.22;;;;;;;8.04;100.00;98357.72;5047701;28;20028;-58
2021/12/28 02:57:37;;;;;;;9.63;4.50;;;;;;;8.03;100.00;98361.31;5047646;28;20914;-58
2021/12/28 03:00:05;;;;;;;20.00;5.60;;;;;;;8.01;100.00;98355.34;5030058;28;20131;-58
2021/12/28 03:02:31;;;;;;;14.85;4.57;;;;;;;7.74;100.00;98318.13;5047054;28;20135;-58
2021/12/28 03:04:56;;;;;;;22.42;5.35;;;;;;;7.98;100.00;98362.56;5046752;28;20024;-59
2021/12/28 03:07:22;;;;;;;13.82;5.63;;;;;;;7.98;100.00;98352.97;5047070;28;20778;-58
2021/12/28 03:09:48;;;;;;;13.85;5.30;;;;;;;7.94;100.00;98354.13;5046881;28;20612;-58
2021/12/28 03:12:13;;;;;;;12.13;4.65;;;;;;;7.91;100.00;98346.50;5045837;28;20113;-58
2021/12/28 03:14:39;;;;;;;20.35;6.20;;;;;;;7.90;100.00;98350.06;5045154;28;20028;-58
2021/12/28 03:17:05;;;;;;;12.73;4.65;;;;;;;7.86;100.00;98346.00;5046663;28;20140;-59
2021/12/28 03:19:30;;;;;;;14.32;5.10;;;;;;;7.84;100.00;98349.69;5046082;28;20044;-58
2021/12/28 03:21:59;;;;;;;20.90;5.35;;;;;;;7.87;100.00;98347.69;5047438;28;20100;-58
2021/12/28 03:24:25;;;;;;;14.82;5.53;;;;;;;7.95;100.00;98341.88;5046818;28;20044;-58
2021/12/28 03:26:51;;;;;;;12.40;4.43;;;;;;;7.93;100.00;98322.88;5048745;28;20027;-58
2021/12/28 03:29:16;;;;;;;11.45;4.45;;;;;;;7.93;100.00;98318.47;5048520;28;20821;-58
2021/12/28 03:31:42;;;;;;;17.35;5.25;;;;;;;8.03;100.00;98324.69;5051916;28;20028;-58
2021/12/28 03:34:07;;;;;;;12.02;3.85;;;;;;;8.01;100.00;98321.34;5050042;28;20028;-58
2021/12/28 03:36:33;;;;;;;18.05;4.45;;;;;;;8.01;100.00;98320.53;5050991;28;20942;-58
2021/12/28 03:39:00;;;;;;;13.23;4.45;;;;;;;8.01;100.00;98326.56;5048791;28;20063;-58
2021/12/28 03:41:27;;;;;;;11.77;4.65;;;;;;;8.03;100.00;98327.31;5048724;28;20942;-59
2021/12/28 03:43:55;;;;;;;10.70;4.60;;;;;;;8.05;100.00;98330.66;5050449;28;20024;-58
2021/12/28 03:46:22;;;;;;;10.02;4.53;;;;;;;8.06;100.00;98321.88;5050187;28;20031;-59
2021/12/28 03:48:47;;;;;;;12.88;3.92;;;;;;;8.03;100.00;98322.09;5064668;28;20085;-58
2021/12/28 03:51:14;;;;;;;17.90;4.93;;;;;;;8.03;100.00;98309.00;5050067;28;20035;-58
2021/12/28 03:53:39;;;;;;;9.48;4.05;;;;;;;8.04;100.00;98310.66;5051116;28;20024;-58
2021/12/28 03:56:07;;;;;;;11.35;4.35;;;;;;;8.04;100.00;98310.66;5050764;28;20024;-58
2021/12/28 03:58:33;;;;;;;16.23;4.28;;;;;;;8.03;100.00;98311.63;5048789;28;20032;-58
2021/12/28 04:00:59;;;;;;;17.42;4.43;;;;;;;8.07;100.00;98300.00;5049575;28;20745;-58
2021/12/28 04:03:24;;;;;;;16.85;4.53;;;;;;;8.10;100.00;98301.56;5050311;28;20043;-58
2021/12/28 04:05:51;;;;;;;13.93;4.00;;;;;;;7.63;100.00;98216.16;5049709;28;20024;-58
2021/12/28 04:08:22;;;;;;;7.32;3.35;;;;;;;8.14;100.00;98301.19;5048653;28;20948;-58
2021/12/28 04:11:03;;;;;;;21.75;3.25;;;;;;;8.13;100.00;98299.53;5031151;28;20912;-58
2021/12/28 04:13:29;;;;;;;11.77;3.55;;;;;;;8.16;100.00;98299.31;5048816;28;20024;-58
2021/12/28 04:15:54;;;;;;;11.75;4.13;;;;;;;8.18;100.00;98297.41;5049926;28;20032;-58
2021/12/28 04:18:20;;;;;;;11.75;2.97;;;;;;;8.23;100.00;98294.47;5048401;28;20055;-58
2021/12/28 04:20:46;;;;;;;12.38;2.83;;;;;;;8.25;100.00;98286.50;5048257;28;20028;-58
2021/12/28 04:23:11;;;;;;;9.77;2.63;;;;;;;8.25;100.00;98289.94;5048326;28;20152;-58
2021/12/28 04:25:37;;;;;;;5.20;2.67;;;;;;;8.24;100.00;98290.91;5049590;28;20073;-58
2021/12/28 04:28:02;;;;;;;12.95;3.58;;;;;;;8.16;100.00;98280.16;5050380;28;20086;-58
2021/12/28 04:30:28;;;;;;;7.20;2.58;;;;;;;8.23;100.00;98294.47;5049706;28;20071;-58
2021/12/28 04:32:53;;;;;;;9.48;2.78;;;;;;;8.20;100.00;98289.47;5049450;28;20034;-58
2021/12/28 04:35:19;;;;;;;15.70;3.08;;;;;;;8.09;100.00;98266.72;5049364;28;20911;-58
2021/12/28 04:37:44;;;;;;;5.35;2.55;;;;;;;8.19;100.00;98298.25;5049480;28;20862;-58
2021/12/28 04:40:12;;;;;;;15.77;2.53;;;;;;;8.25;100.00;98291.75;5047667;28;20056;-58
2021/12/28 04:42:39;;;;;;;6.60;2.63;;;;;;;8.28;100.00;98286.28;5047736;28;20028;-58
2021/12/28 04:45:07;;;;;;;6.03;2.25;;;;;;;8.27;100.00;98287.22;5031466;28;20054;-58
2021/12/28 04:47:33;;;;;;;7.47;2.95;;;;;;;8.30;100.00;98289.63;5047704;28;20024;-58
2021/12/28 04:49:59;;;;;;;3.85;1.50;;;;;;;8.30;100.00;98284.41;5049645;28;20093;-58
2021/12/28 04:52:24;;;;;;;6.80;2.97;;;;;;;8.25;100.00;98276.84;5049108;28;20133;-58
2021/12/28 04:54:50;;;;;;;7.63;1.90;;;;;;;8.26;100.00;98288.16;5049029;28;20790;-59
2021/12/28 04:57:15;;;;;;;7.85;2.08;;;;;;;8.22;100.00;98277.94;5049001;28;20946;-58
2021/12/28 04:59:41;;;;;;;10.85;2.33;;;;;;;8.19;100.00;98293.84;5047549;28;20828;-58
2021/12/28 05:02:07;;;;;;;4.03;1.88;;;;;;;8.18;100.00;98289.56;5047760;28;20082;-58
2021/12/28 05:04:32;;;;;;;4.95;1.73;;;;;;;8.15;100.00;98300.25;5049308;28;20028;-58
2021/12/28 05:06:58;;;;;;;5.47;1.85;;;;;;;8.09;100.00;98303.31;5049438;28;20135;-58
2021/12/28 05:09:23;;;;;;;19.67;3.03;;;;;;;8.06;100.00;98303.56;5030174;28;20106;-58
2021/12/28 05:11:48;;;;;;;8.38;2.47;;;;;;;7.94;100.00;98283.53;5047339;28;20028;-58
2021/12/28 05:14:16;;;;;;;4.07;2.00;;;;;;;8.04;100.00;98291.53;5048740;28;20082;-58
2021/12/28 05:16:42;;;;;;;5.90;2.00;;;;;;;7.89;100.00;98269.97;5048720;28;20031;-58
2021/12/28 05:19:08;;;;;;;6.10;1.92;;;;;;;8.00;100.00;98283.09;5048600;28;20028;-58
2021/12/28 05:21:34;;;;;;;3.58;1.60;;;;;;;8.01;100.00;98289.97;5047168;28;20323;-58
2021/12/28 05:24:00;;;;;;;4.15;1.73;;;;;;;8.02;100.00;98294.25;5029853;28;20034;-58
2021/12/28 05:26:25;;;;;;;4.90;1.95;;;;;;;8.04;100.00;98287.13;5049062;28;20028;-58
2021/12/28 05:28:51;;;;;;;5.78;1.80;;;;;;;8.04;100.00;98284.50;5047340;28;20032;-58
2021/12/28 05:31:17;;;;;;;7.43;2.30;;;;;;;8.05;100.00;98291.41;5048445;28;20032;-58
2021/12/28 05:33:42;;;;;;;4.80;1.92;;;;;;;8.07;100.00;98288.69;5048682;28;20915;-58
2021/12/28 05:36:08;;;;;;;5.30;1.65;;;;;;;8.09;100.00;98282.41;5048468;28;20024;-58
2021/12/28 05:38:34;;;;;;;4.28;1.23;;;;;;;8.08;100.00;98280.72;5048416;28;20856;-58
2021/12/28 05:41:00;;;;;;;2.92;1.30;;;;;;;7.96;100.00;98255.50;5046682;28;20022;-58
2021/12/28 05:43:25;;;;;;;5.63;1.48;;;;;;;8.12;100.00;98270.88;5047093;28;20777;-58
2021/12/28 05:45:50;;;;;;;4.05;1.50;;;;;;;8.15;100.00;98281.09;5048248;28;20046;-58
2021/12/28 05:48:16;;;;;;;5.82;1.65;;;;;;;8.16;100.00;98280.16;5048386;28;20787;-58
2021/12/28 05:50:41;;;;;;;4.35;1.52;;;;;;;8.17;100.00;98279.22;5047290;28;20035;-58
2021/12/28 05:53:07;;;;;;;7.40;2.22;;;;;;;7.82;100.00;98211.22;5048376;28;20032;-58
2021/12/28 05:55:32;;;;;;;5.65;1.42;;;;;;;8.21;100.00;98271.00;5046855;28;20072;-58
2021/12/28 05:57:58;;;;;;;3.83;1.77;;;;;;;8.25;100.00;98270.81;5048115;28;20130;-58
2021/12/28 06:00:24;;;;;;;3.65;1.40;;;;;;;8.23;100.00;98274.38;5047891;28;20028;-58
2021/12/28 06:02:49;;;;;;;3.45;1.27;;;;;;;8.23;100.00;98269.13;5047334;28;20020;-58
2021/12/28 06:05:14;;;;;;;4.05;1.13;;;;;;;8.27;100.00;98279.38;5047851;28;20024;-58
2021/12/28 06:07:40;;;;;;;9.63;2.15;;;;;;;8.28;100.00;98271.41;5063353;28;20081;-58
2021/12/28 06:10:07;;;;;;;5.10;1.15;;;;;;;8.29;100.00;98273.09;5047909;28;20056;-59
2021/12/28 06:12:32;;;;;;;3.10;1.23;;;;;;;8.31;100.00;98270.38;5047720;28;20058;-58
2021/12/28 06:14:58;;;;;;;4.05;1.30;;;;;;;8.31;100.00;98271.22;5047906;28;20028;-59
2021/12/28 06:17:23;;;;;;;3.65;1.25;;;;;;;8.35;100.00;98275.25;5047782;28;20943;-59
2021/12/28 06:19:48;;;;;;;5.63;1.65;;;;;;;8.03;100.00;98222.72;5064496;28;20923;-58
2021/12/28 06:22:14;;;;;;;4.40;1.48;;;;;;;8.16;100.00;98252.22;5046866;28;20056;-57
2021/12/28 06:24:40;;;;;;;3.03;1.13;;;;;;;8.17;100.00;98256.53;5046182;28;20027;-57
2021/12/28 06:27:05;;;;;;;2.92;1.30;;;;;;;7.98;100.00;98237.91;5047418;28;20904;-57
2021/12/28 06:29:31;;;;;;;6.28;1.23;;;;;;;7.87;100.00;98247.50;5047532;28;20894;-57
2021/12/28 06:31:56;;;;;;;2.60;1.00;;;;;;;7.76;100.00;98253.50;5063777;28;20199;-57
2021/12/28 06:34:21;;;;;;;3.22;0.75;;;;;;;7.66;100.00;98255.13;5047720;28;20031;-57
2021/12/28 06:36:47;;;;;;;3.65;1.20;;;;;;;7.56;100.00;98257.59;5047178;28;20861;-57
2021/12/28 06:39:12;;;;;;;3.53;1.17;;;;;;;7.46;100.00;98255.72;5045704;28;20111;-57
2021/12/28 06:41:38;;;;;;;3.75;1.05;;;;;;;7.44;100.00;98257.59;5047400;28;20781;-57
2021/12/28 06:44:05;;;;;;;2.10;0.85;;;;;;;7.43;100.00;98256.81;5047138;28;20020;-57
2021/12/28 06:46:30;;;;;;;5.35;1.00;;;;;;;7.48;100.00;98262.50;5046939;28;20093;-57
2021/12/28 06:48:56;;;;;;;2.70;1.25;;;;;;;7.57;100.00;98258.41;5047141;28;20827;-57
2021/12/28 06:51:21;;;;;;;2.33;1.00;;;;;;;7.66;100.00;98262.97;5047518;28;20034;-57
2021/12/28 06:53:47;;;;;;;2.58;1.27;;;;;;;7.72;100.00;98257.28;5047325;28;20052;-57
2021/12/28 06:56:13;;;;;;;5.25;1.75;;;;;;;7.67;100.00;98248.97;5045062;28;20879;-57
2021/12/28 06:58:40;;;;;;;3.80;1.20;;;;;;;7.85;100.00;98262.44;5047924;28;20117;-57
2021/12/28 07:01:06;;;;;;;6.10;1.23;;;;;;;7.89;100.00;98259.50;5046868;28;20035;-57
2021/12/28 07:03:32;;;;;;;3.35;0.90;;;;;;;7.94;100.00;98265.22;5047423;28;20031;-57
2021/12/28 07:05:57;;;;;;;2.88;0.93;;;;;;;7.97;100.00;98262.41;5051253;28;20127;-57
2021/12/28 07:08:22;;;;;;;2.92;0.88;;;;;;;8.00;100.00;98266.56;5050850;28;20861;-57
2021/12/28 07:10:48;;;;;;;3.78;1.27;;;;;;;8.01;100.00;98258.59;5050599;28;20126;-57
2021/12/28 07:13:13;;;;;;;3.80;1.17;;;;;;;8.02;100.00;98265.50;5051681;28;20858;-57
2021/12/28 07:15:38;;;;;;;4.60;1.15;;;;;;;8.05;100.00;98267.88;5050798;28;20028;-57
2021/12/28 07:18:04;;;;;;;3.83;1.10;;;;;;;8.08;100.00;98257.19;5065594;28;20028;-57
2021/12/28 07:20:30;;;;;;;1.88;0.60;;;;;;;8.12;100.00;98260.41;5048082;28;20890;-57
2021/12/28 07:22:55;;;;;;;2.47;1.05;;;;;;;8.12;100.00;98261.25;5048048;28;20047;-57
2021/12/28 07:25:21;;;;;;;9.20;0.80;;;;;;;8.13;100.00;98257.69;5052454;28;20971;-57
2021/12/28 07:27:46;;;;;;;2.10;0.90;;;;;;;8.14;100.00;98259.34;5048598;28;20054;-57
2021/12/28 07:30:13;;;;;;;3.67;0.70;;;;;;;8.16;100.00;98262.69;5048387;28;20214;-57
2021/12/28 07:32:39;;;;;;;2.15;0.70;;;;;;;8.16;100.00;98257.47;5049958;28;20028;-57
2021/12/28 07:35:05;;;;;;;3.88;0.80;;;;;;;8.18;100.00;98260.78;5050065;28;20024;-57
2021/12/28 07:37:30;;;;;;;1.92;0.73;;;;;;;8.18;100.00;98266.00;5049909;28;20032;-57
2021/12/28 07:39:56;;;;;;;3.25;0.80;;;;;;;8.18;100.00;98271.25;5048493;28;20070;-58
2021/12/28 07:42:21;;;;;;;1.33;0.63;;;;;;;8.20;100.00;98269.38;5049731;28;20066;-58
2021/12/28 07:44:47;;;;;;;2.08;0.85;;;;;;;8.21;100.00;98271.00;5047963;28;20032;-58
2021/12/28 07:47:13;;;;;;;5.13;0.90;;;;;;;8.21;100.00;98268.41;5049038;28;20089;-58
2021/12/28 07:49:38;;;;;;;2.03;0.63;;;;;;;8.23;100.00;98269.13;5047905;28;20036;-58
2021/12/28 07:52:04;;;;;;;3.15;1.20;;;;;;;8.23;100.00;98277.00;5047320;28;20849;-58
2021/12/28 07:54:29;;;;;;;3.53;0.80;;;;;;;7.93;100.00;98213.88;5049136;28;20036;-58
2021/12/28 07:56:55;;;;;;;2.22;0.63;;;;;;;8.27;100.00;98263.69;5049149;28;20024;-58
2021/12/28 07:59:20;;;;;;;2.28;0.88;;;;;;;8.27;100.00;98258.44;5048925;28;20842;-58
2021/12/28 08:01:46;;;;;;;1.42;0.40;;;;;;;8.28;100.00;98252.28;5047033;28;20085;-58
2021/12/28 08:04:11;;;;;;;1.92;0.65;;;;;;;8.14;100.00;98235.00;5047863;28;20032;-58
2021/12/28 08:06:36;;;;;;;1.52;0.43;;;;;;;8.27;100.00;98247.97;5050990;28;20048;-58
2021/12/28 08:09:02;;;;;;;1.35;0.60;;;;;;;8.29;100.00;98256.56;5049726;28;20039;-58
2021/12/28 08:11:28;;;;;;;2.28;0.80;;;;;;;8.30;100.00;98258.25;5049610;28;20031;-58
2021/12/28 08:13:54;;;;;;;2.58;0.70;;;;;;;8.31;100.00;98259.91;5048336;28;20028;-58
2021/12/28 08:16:19;;;;;;;2.22;0.85;;;;;;;8.34;100.00;98260.53;5048648;28;20044;-58
2021/12/28 08:18:45;;;;;;;4.47;1.15;;;;;;;8.36;100.00;98252.53;5050204;28;20035;-58
2021/12/28 08:21:10;;;;;;;1.45;0.63;;;;;;;7.91;100.00;98192.22;5049711;28;20028;-58
2021/12/28 08:23:35;;;;;;;2.38;0.60;;;;;;;8.20;100.00;98226.69;5049094;28;20544;-59
2021/12/28 08:26:01;;;;;;;2.40;0.82;;;;;;;8.42;100.00;98263.38;5052027;28;20036;-58
2021/12/28 08:28:27;;;;;;;1.92;0.77;;;;;;;8.42;100.00;98258.13;5051142;28;20032;-58
2021/12/28 08:30:53;;;;;;;2.25;0.50;;;;;;;8.47;100.00;98256.03;5049969;28;20862;-58
2021/12/28 08:33:18;;;;;;;3.00;0.90;;;;;;;8.50;100.00;98261.03;5050852;28;20039;-58
2021/12/28 08:35:44;;;;;;;2.50;1.02;;;;;;;8.54;100.00;98259.00;5051055;28;20038;-58
2021/12/28 08:38:11;;;;;;;3.58;0.80;;;;;;;8.55;100.00;98264.09;5049405;28;20738;-58
2021/12/28 08:40:38;;;;;;;3.17;1.00;;;;;;;8.55;100.00;98252.81;5049530;28;20028;-58
2021/12/28 08:43:04;;;;;;;2.53;0.80;;;;;;;8.57;100.00;98250.91;5051144;28;20039;-57
2021/12/28 08:45:30;;;;;;;2.33;0.82;;;;;;;8.58;100.00;98253.41;5049316;28;20134;-58
2021/12/28 08:47:56;;;;;;;3.63;1.38;;;;;;;8.61;100.00;98253.19;5049578;28;20064;-58
2021/12/28 08:50:21;;;;;;;2.25;1.10;;;;;;;8.43;100.00;98222.34;5050832;28;20136;-57
2021/12/28 08:52:48;;;;;;;10.93;1.25;;;;;;;8.64;100.00;98252.13;5065251;28;20035;-58
2021/12/28 08:55:14;;;;;;;2.30;1.20;;;;;;;8.66;100.00;98264.13;5051124;28;20886;-58
2021/12/28 08:57:39;;;;;;;3.42;0.82;;;;;;;8.71;100.00;98255.94;5049331;28;20046;-57
2021/12/28 09:00:11;;;;;;;3.00;1.00;;;;;;;8.69;100.00;98255.19;5050322;28;20830;-57
2021/12/28 09:02:37;;;;;;;3.17;1.33;;;;;;;8.72;100.00;98249.72;5032521;28;20109;-58
2021/12/28 09:05:03;;;;;;;3.60;1.30;;;;;;;8.72;100.00;98247.09;5048325;28;20063;-58
2021/12/28 09:07:28;;;;;;;2.58;1.27;;;;;;;8.76;100.00;98248.53;5049312;28;20020;-58
2021/12/28 09:09:55;;;;;;;3.80;1.33;;;;;;;8.82;100.00;98250.69;5048099;28;20077;-58
2021/12/28 09:12:21;;;;;;;4.10;1.52;;;;;;;8.70;100.00;98231.53;5046185;28;20030;-58
2021/12/28 09:14:46;;;;;;;4.38;1.27;;;;;;;8.85;100.00;98247.84;5047818;28;20028;-58
2021/12/28 09:17:11;;;;;;;2.40;1.15;;;;;;;8.84;100.00;98243.56;5047946;28;20878;-58
2021/12/28 09:19:37;;;;;;;2.53;1.38;;;;;;;8.90;100.00;98247.47;5046937;28;20024;-58
2021/12/28 09:22:04;;;;;;;2.35;1.40;;;;;;;8.92;100.00;98249.00;5047039;28;20790;-58
2021/12/28 09:24:29;;;;;;;4.47;1.52;;;;;;;8.95;100.00;98250.59;5047198;28;20039;-58
2021/12/28 09:26:55;;;;;;;3.25;1.60;;;;;;;8.97;100.00;98254.75;5047075;28;20064;-58
2021/12/28 09:29:21;;;;;;;3.35;1.63;;;;;;;8.99;100.00;98231.06;5046871;28;20075;-58
2021/12/28 09:31:47;;;;;;;1.92;0.88;;;;;;;9.00;100.00;98238.78;5047392;28;20028;-58
2021/12/28 09:34:12;;;;;;;3.50;1.55;;;;;;;9.00;100.00;98238.78;5046561;28;20142;-58
2021/12/28 09:36:40;;;;;;;1.95;0.93;;;;;;;9.04;100.00;98232.34;5047804;28;20020;-58
2021/12/28 09:39:06;;;;;;;3.13;0.85;;;;;;;8.97;100.00;98222.47;5048283;28;20059;-58
2021/12/28 09:41:32;;;;;;;3.55;1.20;;;;;;;9.08;100.00;98231.16;5047535;28;20081;-57
2021/12/28 09:43:58;;;;;;;1.83;0.82;;;;;;;9.12;100.00;98226.53;5045543;28;20428;-58
2021/12/28 09:46:23;;;;;;;1.63;0.70;;;;;;;9.14;100.00;98228.06;5048162;28;20863;-58
2021/12/28 09:48:48;;;;;;;4.85;1.20;;;;;;;9.15;100.00;98229.72;5047419;28;20916;-57
2021/12/28 09:51:14;;;;;;;2.85;1.00;;;;;;;9.16;100.00;98220.06;5064378;28;20028;-58
2021/12/28 09:53:39;;;;;;;2.58;0.93;;;;;;;9.15;100.00;98221.03;5048009;28;20028;-58
2021/12/28 09:56:05;;;;;;;2.00;0.90;;;;;;;9.11;100.00;98215.19;5047339;28;20032;-58
2021/12/28 09:58:39;;;;;;;2.45;0.93;;;;;;;9.15;100.00;98216.63;5045962;28;20032;-57
2021/12/28 10:01:07;;;;;;;2.05;0.85;;;;;;;9.16;100.00;98217.44;5047029;28;20043;-57
2021/12/28 10:03:33;;;;;;;4.53;1.27;;;;;;;9.14;100.00;98216.75;5047051;28;20064;-58
2021/12/28 10:05:58;;;;;;;1.80;1.00;;;;;;;9.17;100.00;98214.72;5062368;28;20024;-58
2021/12/28 10:08:25;;;;;;;2.00;0.60;;;;;;;9.21;100.00;98205.66;5046865;28;20139;-58
2021/12/28 10:10:55;;;;;;;1.70;0.80;;;;;;;9.24;100.00;98215.06;5046253;28;20063;-58
2021/12/28 10:13:22;;;;;;;1.80;0.77;;;;;;;9.31;100.00;98207.53;5026213;28;20961;-58
2021/12/28 10:15:49;;;;;;;2.95;1.10;;;;;;;9.33;100.00;98208.25;5044983;28;20024;-58
2021/12/28 10:18:15;;;;;;;1.23;0.60;;;;;;;9.44;100.00;98192.47;5043218;28;20139;-58
2021/12/28 10:20:43;;;;;;;2.03;0.65;;;;;;;9.54;100.00;98185.53;5045827;28;20818;-58
2021/12/28 10:23:11;;;;;;;2.10;0.70;;;;;;;9.59;100.00;98180.75;5043551;28;20087;-58
2021/12/28 10:25:47;;;;;;;2.65;1.10;;;;;;;9.67;100.00;98175.69;5044729;28;20027;-58
2021/12/28 10:28:16;;;;;;;2.90;0.80;;;;;;;9.68;100.00;98172.97;5046947;28;20058;-58
2021/12/28 10:30:43;;;;;;;2.85;1.10;;;;;;;9.69;100.00;98166.78;5046607;28;20028;-58
2021/12/28 10:33:11;;;;;;;2.28;1.00;;;;;;;9.68;100.00;98161.66;5045131;28;20030;-58
2021/12/28 10:35:40;;;;;;;1.98;0.75;;;;;;;9.22;100.00;98086.81;5044659;28;20019;-58
2021/12/28 10:38:11;;;;;;;2.58;0.98;;;;;;;9.43;100.00;98109.59;5044048;28;20134;-58
2021/12/28 10:40:43;;;;;;;1.92;0.90;;;;;;;9.68;100.00;98149.38;5044341;28;20084;-58
2021/12/28 10:43:13;;;;;;;1.75;0.85;;;;;;;9.66;100.00;98145.22;5044492;28;20062;-57
2021/12/28 10:45:41;;;;;;;1.80;0.80;;;;;;;9.61;100.00;98147.38;5046536;28;20027;-58
2021/12/28 10:48:21;;;;;;;1.67;0.73;;;;;;;9.59;100.00;98138.81;5045526;28;20029;-58
2021/12/28 10:51:13;;;;;;;3.08;1.27;;;;;;;9.61;100.00;98150.00;5046922;28;20036;-58
2021/12/28 10:54:06;;;;;;;2.35;1.15;;;;;;;9.58;100.00;98148.47;5045766;28;20040;-58
2021/12/28 10:56:35;;;;;;;2.95;1.20;;;;;;;9.54;100.00;98131.31;5044333;28;20171;-58
2021/12/28 10:59:01;;;;;;;3.40;1.65;;;;;;;9.57;100.00;98140.72;5045841;28;20055;-58
2021/12/28 11:01:29;;;;;;;2.10;0.93;;;;;;;9.56;100.00;98133.81;5046351;28;20040;-58
2021/12/28 11:03:55;;;;;;;2.72;1.00;;;;;;;9.56;100.00;98132.03;5044675;28;20038;-58
2021/12/28 11:06:23;;;;;;;2.47;1.20;;;;;;;9.60;100.00;98133.44;5045636;28;20060;-58
2021/12/28 11:08:53;;;;;;;4.68;1.67;;;;;;;9.61;100.00;98126.41;5045698;28;20048;-58
2021/12/28 11:11:20;;;;;;;2.65;1.15;;;;;;;9.61;100.00;98129.03;5046259;28;20117;-58
2021/12/28 11:13:46;;;;;;;3.20;1.42;;;;;;;9.62;100.00;98115.81;5029866;28;20854;-58
2021/12/28 11:16:14;;;;;;;2.90;1.13;;;;;;;9.63;100.00;98114.81;5026832;28;20864;-58
2021/12/28 11:18:45;;;;;;;2.40;1.33;;;;;;;9.59;100.00;98123.91;5044943;28;20031;-58
2021/12/28 11:21:12;;;;;;;1.77;0.85;;;;;;;9.56;100.00;98115.47;5043459;28;20024;-59
2021/12/28 11:23:37;;;;;;;6.10;1.10;;;;;;;9.50;100.00;98132.53;5044558;28;20032;-59
2021/12/28 11:26:12;;;;;;;5.90;1.60;;;;;;;9.47;100.00;98092.63;5026729;28;20024;-59
2021/12/28 11:28:39;;;;;;;8.68;3.47;;;;;;;9.30;100.00;98135.09;5027424;28;20046;-58